Time;durP1;ratioP1;P1;durP2;ratioP2;P2;SDS_P1;SDS_P2;PMS_P1;PMS_P2;Temp;Humidity;BMP_temperature;BMP_pressure;BME280_temperature;BME280_humidity;BME280_pressure;Samples;Min_cycle;Max_cycle;Signal;HPM_P1;HPM_P2
2021/01/05 00:01:50;;;;;;;3.87;2.03;;;2.80;99.90;;;;;;5024804;28;20261;-48
2021/01/05 00:04:15;;;;;;;5.37;2.27;;;2.80;99.90;;;;;;5025592;28;20176;-51
2021/01/05 00:06:41;;;;;;;2.90;2.10;;;2.90;99.90;;;;;;5019176;28;20222;-48
2021/01/05 00:09:06;;;;;;;3.47;2.10;;;2.90;99.90;;;;;;5025640;28;20259;-49
2021/01/05 00:11:32;;;;;;;3.03;2.30;;;2.90;99.90;;;;;;5002669;28;20914;-49
2021/01/05 00:13:57;;;;;;;3.33;1.97;;;2.90;99.90;;;;;;5026184;28;20645;-48
2021/01/05 00:16:28;;;;;;;6.77;2.27;;;2.90;99.90;;;;;;5022844;28;20543;-51
2021/01/05 00:18:54;;;;;;;4.13;2.23;;;2.90;99.90;;;;;;5025437;28;20184;-50
2021/01/05 00:21:19;;;;;;;3.40;2.20;;;2.90;99.90;;;;;;5023969;28;20196;-52
2021/01/05 00:23:45;;;;;;;3.50;2.17;;;3.00;99.90;;;;;;5019736;28;20933;-47
2021/01/05 00:26:10;;;;;;;4.93;2.27;;;3.00;99.90;;;;;;5008823;28;20230;-48
2021/01/05 00:28:36;;;;;;;3.03;1.97;;;3.00;99.90;;;;;;5019784;28;20201;-48
2021/01/05 00:31:01;;;;;;;4.23;2.40;;;3.00;99.90;;;;;;5024307;28;20204;-48
2021/01/05 00:33:27;;;;;;;4.43;2.10;;;3.00;99.90;;;;;;5022386;28;20176;-51
2021/01/05 00:35:52;;;;;;;5.77;2.70;;;3.10;99.90;;;;;;5024954;28;20161;-50
2021/01/05 00:38:18;;;;;;;4.43;2.03;;;3.10;99.90;;;;;;5020641;28;20195;-51
2021/01/05 00:40:43;;;;;;;3.17;2.10;;;3.10;99.90;;;;;;5009844;28;20344;-49
2021/01/05 00:43:09;;;;;;;2.63;2.23;;;3.10;99.90;;;;;;5019767;28;20169;-48
2021/01/05 00:45:38;;;;;;;2.80;2.10;;;3.20;99.90;;;;;;5021410;28;20184;-47
2021/01/05 00:48:05;;;;;;;2.50;1.87;;;3.20;99.90;;;;;;5024892;28;20168;-51
2021/01/05 00:50:31;;;;;;;2.13;1.90;;;3.10;99.90;;;;;;5021241;28;20220;-51
2021/01/05 00:52:56;;;;;;;6.07;2.27;;;3.20;99.90;;;;;;5020194;28;20176;-50
2021/01/05 00:55:22;;;;;;;4.30;2.23;;;3.20;99.90;;;;;;5016748;28;20178;-46
2021/01/05 00:57:48;;;;;;;4.40;1.90;;;3.20;99.90;;;;;;5011001;28;20173;-47
2021/01/05 01:00:18;;;;;;;1.57;1.47;;;3.20;99.90;;;;;;5024508;28;20323;-48
2021/01/05 01:02:43;;;;;;;2.27;1.50;;;3.20;99.90;;;;;;5022536;28;20172;-51
2021/01/05 01:05:10;;;;;;;1.70;1.60;;;3.20;99.90;;;;;;5025428;28;20168;-48
2021/01/05 01:07:35;;;;;;;2.07;1.70;;;3.20;99.90;;;;;;5021123;28;20175;-47
2021/01/05 01:10:01;;;;;;;3.67;1.70;;;3.20;99.90;;;;;;5020677;28;20270;-47
2021/01/05 01:12:26;;;;;;;4.20;1.63;;;3.20;99.90;;;;;;5010490;28;20688;-51
2021/01/05 01:14:54;;;;;;;4.20;1.90;;;3.20;99.90;;;;;;5023784;28;20172;-49
2021/01/05 01:17:21;;;;;;;2.30;2.10;;;3.20;99.90;;;;;;5023483;28;20271;-54
2021/01/05 01:19:46;;;;;;;2.70;1.70;;;3.20;99.90;;;;;;5022686;28;20176;-52
2021/01/05 01:22:15;;;;;;;3.27;1.83;;;3.20;99.90;;;;;;5024769;28;20196;-50
2021/01/05 01:24:40;;;;;;;4.70;1.70;;;3.20;99.90;;;;;;5016880;28;20184;-48
2021/01/05 01:27:06;;;;;;;3.00;1.70;;;3.20;99.90;;;;;;5024557;28;20207;-48
2021/01/05 01:29:31;;;;;;;2.60;1.50;;;3.20;99.90;;;;;;5000945;28;20192;-49
2021/01/05 01:31:57;;;;;;;2.40;1.73;;;3.20;99.90;;;;;;5024500;28;20223;-48
2021/01/05 01:34:26;;;;;;;2.03;1.40;;;3.20;99.90;;;;;;5022433;28;20172;-48
2021/01/05 01:36:58;;;;;;;2.50;1.73;;;3.20;99.90;;;;;;5024063;28;20200;-49
2021/01/05 01:39:24;;;;;;;1.90;1.73;;;3.20;99.90;;;;;;5020035;28;20199;-47
2021/01/05 01:41:50;;;;;;;5.90;1.93;;;3.20;99.90;;;;;;5020941;28;20266;-48
2021/01/05 01:44:22;;;;;;;2.60;2.20;;;3.20;99.90;;;;;;5004401;28;20196;-52
2021/01/05 01:46:50;;;;;;;1.67;1.57;;;3.20;99.90;;;;;;5022641;28;20213;-47
2021/01/05 01:49:16;;;;;;;3.00;1.50;;;3.20;99.90;;;;;;5023329;28;20274;-53
2021/01/05 01:51:43;;;;;;;2.53;2.00;;;3.20;99.90;;;;;;5021126;28;20407;-47
2021/01/05 01:54:14;;;;;;;2.93;1.70;;;3.20;99.90;;;;;;5023603;28;20546;-47
2021/01/05 01:57:11;;;;;;;3.33;1.40;;;3.20;99.90;;;;;;5016914;28;20254;-48
2021/01/05 01:59:51;;;;;;;3.27;1.80;;;3.10;99.90;;;;;;5000784;28;20208;-48
2021/01/05 02:02:26;;;;;;;2.87;1.77;;;3.10;99.90;;;;;;5022640;28;20207;-48
2021/01/05 02:05:06;;;;;;;2.97;1.87;;;3.10;99.90;;;;;;5023098;28;20164;-48
2021/01/05 02:08:00;;;;;;;2.73;1.87;;;3.10;99.90;;;;;;5019889;28;20176;-50
2021/01/05 02:10:41;;;;;;;2.53;1.90;;;3.10;99.90;;;;;;5017761;28;20235;-53
2021/01/05 02:13:19;;;;;;;2.20;2.00;;;3.10;99.90;;;;;;5024045;28;20184;-48
2021/01/05 02:16:13;;;;;;;2.87;2.23;;;3.10;99.90;;;;;;5015102;28;20176;-47
2021/01/05 02:19:04;;;;;;;3.23;2.07;;;3.10;99.90;;;;;;5019889;28;20164;-48
2021/01/05 02:21:56;;;;;;;4.63;1.90;;;3.10;99.90;;;;;;5019782;28;20195;-51
2021/01/05 02:24:42;;;;;;;4.90;1.67;;;3.10;99.90;;;;;;5017541;28;20182;-47
2021/01/05 02:27:10;;;;;;;2.07;1.90;;;3.10;99.90;;;;;;5006806;28;20187;-46
2021/01/05 02:29:42;;;;;;;3.17;2.07;;;3.10;99.90;;;;;;5007527;28;20238;-48
2021/01/05 02:32:27;;;;;;;3.77;2.13;;;3.10;99.90;;;;;;5022430;28;20215;-48
2021/01/05 02:35:14;;;;;;;2.10;1.83;;;3.10;99.90;;;;;;5003331;28;20179;-49
2021/01/05 02:37:50;;;;;;;2.77;2.00;;;3.10;99.90;;;;;;5000397;28;20427;-48
2021/01/05 02:40:33;;;;;;;3.37;2.10;;;3.10;99.90;;;;;;5002221;28;20683;-52
2021/01/05 02:43:37;;;;;;;2.20;2.00;;;3.10;99.90;;;;;;5005641;28;20274;-48
2021/01/05 02:46:18;;;;;;;2.73;2.17;;;3.10;99.90;;;;;;5011861;28;20199;-48
2021/01/05 02:49:09;;;;;;;5.07;2.60;;;3.10;99.90;;;;;;5020484;28;20178;-48
2021/01/05 02:52:10;;;;;;;4.07;2.30;;;3.10;99.90;;;;;;5019365;28;20937;-48
2021/01/05 02:55:15;;;;;;;2.53;1.80;;;3.10;99.90;;;;;;5019567;28;21055;-47
2021/01/05 02:57:45;;;;;;;3.83;2.30;;;3.10;99.90;;;;;;5020073;28;20447;-51
2021/01/05 03:00:46;;;;;;;3.63;2.23;;;3.10;99.90;;;;;;5007704;28;20196;-48
2021/01/05 03:03:29;;;;;;;3.40;2.57;;;3.10;99.90;;;;;;5017802;28;20222;-47
2021/01/05 03:06:16;;;;;;;2.53;2.03;;;3.10;99.90;;;;;;5023031;28;20198;-48
2021/01/05 03:08:50;;;;;;;4.57;2.60;;;3.10;99.90;;;;;;5019886;28;20545;-53
2021/01/05 03:11:26;;;;;;;3.27;2.50;;;3.10;99.90;;;;;;5022402;28;20208;-50
2021/01/05 03:14:38;;;;;;;2.80;2.57;;;3.10;99.90;;;;;;5021872;28;20183;-47
2021/01/05 03:17:14;;;;;;;4.77;2.47;;;3.10;99.90;;;;;;5000449;28;20188;-47
2021/01/05 03:20:16;;;;;;;4.27;3.00;;;3.10;99.90;;;;;;5019419;28;20259;-49
2021/01/05 03:22:55;;;;;;;4.80;3.20;;;3.10;99.90;;;;;;4998360;28;20568;-47
2021/01/05 03:25:23;;;;;;;3.10;2.40;;;3.10;99.90;;;;;;5021390;28;20704;-49
2021/01/05 03:27:53;;;;;;;3.90;2.67;;;3.10;99.90;;;;;;5021443;28;20165;-48
2021/01/05 03:30:43;;;;;;;3.03;2.70;;;3.10;99.90;;;;;;5017460;28;20242;-51
2021/01/05 03:33:08;;;;;;;3.23;2.50;;;3.10;99.90;;;;;;5000425;28;20194;-50
2021/01/05 03:35:34;;;;;;;3.30;2.70;;;3.20;99.90;;;;;;5018797;28;20251;-47
2021/01/05 03:38:00;;;;;;;4.43;2.83;;;3.10;99.90;;;;;;5022992;28;20204;-50
2021/01/05 03:40:25;;;;;;;4.40;2.57;;;3.20;99.90;;;;;;5019843;28;20196;-50
2021/01/05 03:42:51;;;;;;;3.30;2.20;;;3.10;99.90;;;;;;5021905;28;20222;-49
2021/01/05 03:45:26;;;;;;;4.17;2.87;;;3.00;99.90;;;;;;5018054;28;20657;-49
2021/01/05 03:47:51;;;;;;;4.83;2.33;;;3.00;99.90;;;;;;5010476;28;20191;-52
2021/01/05 03:50:17;;;;;;;2.60;2.20;;;3.00;99.90;;;;;;5022095;28;20745;-50
2021/01/05 03:52:43;;;;;;;2.43;2.23;;;3.00;99.90;;;;;;5023600;28;20177;-49
2021/01/05 03:55:10;;;;;;;4.17;2.40;;;3.00;99.90;;;;;;5026629;28;20222;-49
2021/01/05 03:57:36;;;;;;;2.33;2.10;;;2.90;99.90;;;;;;5021918;28;20174;-50
2021/01/05 04:00:03;;;;;;;2.23;2.03;;;2.90;99.90;;;;;;5026013;28;20180;-49
2021/01/05 04:02:28;;;;;;;4.37;1.60;;;2.90;99.90;;;;;;5008969;28;20218;-53
2021/01/05 04:04:54;;;;;;;3.40;2.30;;;2.90;99.90;;;;;;5024107;28;20188;-50
2021/01/05 04:07:19;;;;;;;2.83;2.37;;;2.90;99.90;;;;;;5024241;28;20199;-49
2021/01/05 04:09:45;;;;;;;2.10;1.90;;;2.90;99.90;;;;;;5022593;28;20489;-47
2021/01/05 04:12:10;;;;;;;2.60;2.10;;;2.90;99.90;;;;;;5025778;28;20240;-48
2021/01/05 04:14:36;;;;;;;2.97;2.10;;;2.90;99.90;;;;;;5022204;28;20180;-47
2021/01/05 04:17:02;;;;;;;2.10;1.90;;;2.90;99.90;;;;;;5022442;28;20636;-47
2021/01/05 04:19:27;;;;;;;2.73;2.03;;;2.90;99.90;;;;;;5011302;28;20589;-52
2021/01/05 04:21:53;;;;;;;2.83;1.70;;;2.80;99.90;;;;;;5024901;28;20676;-48
2021/01/05 04:24:19;;;;;;;3.53;2.10;;;2.80;99.90;;;;;;5024080;28;20283;-50
2021/01/05 04:26:45;;;;;;;2.50;2.03;;;2.80;99.90;;;;;;5023338;28;20685;-50
2021/01/05 04:29:11;;;;;;;2.63;1.50;;;2.80;99.90;;;;;;5025424;28;20271;-49
2021/01/05 04:31:42;;;;;;;1.70;1.60;;;2.90;99.90;;;;;;5016724;28;20218;-51
2021/01/05 04:34:09;;;;;;;2.57;2.10;;;2.90;99.90;;;;;;5014274;28;20192;-47
2021/01/05 04:36:34;;;;;;;3.37;2.10;;;2.90;99.90;;;;;;5021061;28;20171;-48
2021/01/05 04:39:00;;;;;;;3.13;2.30;;;2.90;99.90;;;;;;5025525;28;20184;-48
2021/01/05 04:41:27;;;;;;;2.13;1.63;;;2.90;99.90;;;;;;5022520;28;20331;-52
2021/01/05 04:43:59;;;;;;;2.07;1.90;;;2.90;99.90;;;;;;5024714;28;20180;-48
2021/01/05 04:46:43;;;;;;;2.50;2.00;;;2.90;99.90;;;;;;5020806;28;20195;-50
2021/01/05 04:49:11;;;;;;;2.03;1.83;;;2.90;99.90;;;;;;5005691;28;20255;-49
2021/01/05 04:51:56;;;;;;;4.10;2.07;;;2.90;99.90;;;;;;5002919;28;20441;-47
2021/01/05 04:54:36;;;;;;;1.80;1.70;;;2.90;99.90;;;;;;5023240;28;20550;-48
2021/01/05 04:57:30;;;;;;;1.90;1.80;;;2.90;99.90;;;;;;5025416;28;20199;-49
2021/01/05 05:00:09;;;;;;;5.13;2.30;;;2.90;99.90;;;;;;5022918;28;20180;-53
2021/01/05 05:02:52;;;;;;;2.03;1.93;;;2.90;99.90;;;;;;5016591;28;21023;-49
2021/01/05 05:05:23;;;;;;;2.97;2.00;;;2.90;99.90;;;;;;5012383;28;20275;-52
2021/01/05 05:08:21;;;;;;;3.50;1.57;;;2.90;99.90;;;;;;5023566;28;20855;-49
2021/01/05 05:10:53;;;;;;;2.17;1.93;;;2.90;99.90;;;;;;5023020;28;20254;-47
2021/01/05 05:13:43;;;;;;;2.37;1.63;;;2.90;99.90;;;;;;5023777;28;20230;-50
2021/01/05 05:16:27;;;;;;;2.27;1.57;;;2.90;99.90;;;;;;5024871;28;20203;-48
2021/01/05 05:19:13;;;;;;;4.37;2.63;;;2.90;99.90;;;;;;5020097;28;20184;-47
2021/01/05 05:21:51;;;;;;;1.90;1.57;;;2.90;99.90;;;;;;5002169;28;20935;-47
2021/01/05 05:24:39;;;;;;;2.17;1.90;;;2.80;99.90;;;;;;5023654;28;20214;-49
2021/01/05 05:27:17;;;;;;;2.93;2.20;;;2.90;99.90;;;;;;5024754;28;20174;-51
2021/01/05 05:29:51;;;;;;;2.30;1.40;;;2.90;99.90;;;;;;5021309;28;20263;-48
2021/01/05 05:32:25;;;;;;;3.07;1.90;;;2.90;99.90;;;;;;5023189;28;20704;-48
2021/01/05 05:34:54;;;;;;;3.57;1.97;;;2.90;99.90;;;;;;5019644;28;20187;-47
2021/01/05 05:37:57;;;;;;;3.63;1.57;;;2.90;99.90;;;;;;5011567;28;20549;-49
2021/01/05 05:40:37;;;;;;;3.87;1.67;;;2.80;99.90;;;;;;5017974;28;20738;-50
2021/01/05 05:43:23;;;;;;;1.93;1.77;;;2.80;99.90;;;;;;5024714;28;20167;-47
2021/01/05 05:45:55;;;;;;;2.23;2.03;;;2.80;99.90;;;;;;5022581;28;20183;-48
2021/01/05 05:48:25;;;;;;;2.07;1.77;;;2.80;99.90;;;;;;5022366;28;20563;-50
2021/01/05 05:51:18;;;;;;;2.23;2.03;;;2.80;99.90;;;;;;5007620;28;20220;-47
2021/01/05 05:53:54;;;;;;;2.37;2.00;;;2.70;99.90;;;;;;5021764;28;20168;-47
2021/01/05 05:56:34;;;;;;;3.47;1.87;;;2.70;99.90;;;;;;5022286;28;20533;-53
2021/01/05 05:59:03;;;;;;;1.97;1.70;;;2.70;99.90;;;;;;5023962;28;20230;-47
2021/01/05 06:01:38;;;;;;;2.60;2.17;;;2.70;99.90;;;;;;5019764;28;20223;-50
2021/01/05 06:04:04;;;;;;;2.57;1.70;;;2.70;99.90;;;;;;5022999;28;20270;-48
2021/01/05 06:06:30;;;;;;;3.17;2.20;;;2.70;99.90;;;;;;5004949;28;20228;-52
2021/01/05 06:08:56;;;;;;;3.63;1.93;;;2.70;99.90;;;;;;5023529;28;20183;-50
2021/01/05 06:11:21;;;;;;;3.47;1.93;;;2.70;99.90;;;;;;5020714;28;20215;-51
2021/01/05 06:13:47;;;;;;;2.30;2.10;;;2.70;99.90;;;;;;5021109;28;20165;-48
2021/01/05 06:16:12;;;;;;;3.77;2.67;;;2.70;99.90;;;;;;5023362;28;20172;-52
2021/01/05 06:18:38;;;;;;;2.10;1.90;;;2.70;99.90;;;;;;5020245;28;20169;-51
2021/01/05 06:21:05;;;;;;;3.63;2.60;;;2.70;99.90;;;;;;5012410;28;20200;-50
2021/01/05 06:23:30;;;;;;;2.43;1.97;;;2.70;99.90;;;;;;5019680;28;20710;-50
2021/01/05 06:25:56;;;;;;;4.00;2.40;;;2.70;99.90;;;;;;5023258;28;20184;-49
2021/01/05 06:28:21;;;;;;;2.17;1.93;;;2.70;99.90;;;;;;5021294;28;20647;-50
2021/01/05 06:30:47;;;;;;;2.20;2.00;;;2.70;99.90;;;;;;5020576;28;20207;-48
2021/01/05 06:33:13;;;;;;;2.57;2.33;;;2.70;99.90;;;;;;5023230;28;20176;-50
2021/01/05 06:35:38;;;;;;;3.63;2.80;;;2.70;99.90;;;;;;5008535;28;24773;-48
2021/01/05 06:38:04;;;;;;;3.97;2.23;;;2.80;99.90;;;;;;5023442;28;20172;-49
2021/01/05 06:40:29;;;;;;;6.07;2.50;;;2.70;99.90;;;;;;5019465;28;20207;-50
2021/01/05 06:42:56;;;;;;;3.00;2.37;;;2.80;99.90;;;;;;5023181;28;20267;-48
2021/01/05 06:45:28;;;;;;;3.57;2.80;;;2.80;99.90;;;;;;5021262;28;20245;-51
2021/01/05 06:47:54;;;;;;;2.47;2.27;;;2.80;99.90;;;;;;5022787;28;20168;-47
2021/01/05 06:50:21;;;;;;;2.53;2.33;;;2.80;99.90;;;;;;5021563;28;20254;-50
2021/01/05 06:52:47;;;;;;;3.80;2.93;;;2.80;99.90;;;;;;5002130;28;20253;-49
2021/01/05 06:55:12;;;;;;;5.17;3.13;;;2.80;99.90;;;;;;5022989;28;20180;-48
2021/01/05 06:57:38;;;;;;;3.03;2.73;;;2.80;99.90;;;;;;5019675;28;20329;-48
2021/01/05 07:00:06;;;;;;;3.20;2.67;;;2.90;99.90;;;;;;5023074;28;20202;-48
2021/01/05 07:02:32;;;;;;;3.67;3.27;;;2.90;99.90;;;;;;5018641;28;20826;-50
2021/01/05 07:04:57;;;;;;;3.93;3.23;;;2.90;99.90;;;;;;5023226;28;20633;-48
2021/01/05 07:07:23;;;;;;;5.30;3.40;;;3.00;99.90;;;;;;5014133;28;20180;-52
2021/01/05 07:09:48;;;;;;;4.07;3.23;;;3.00;99.90;;;;;;5013137;28;20184;-49
2021/01/05 07:12:13;;;;;;;4.80;3.33;;;3.00;99.90;;;;;;5022677;28;20652;-51
2021/01/05 07:14:39;;;;;;;3.97;3.57;;;3.10;99.90;;;;;;5019757;28;20160;-48
2021/01/05 07:17:04;;;;;;;4.00;3.13;;;3.10;99.90;;;;;;5023162;28;20263;-49
2021/01/05 07:19:30;;;;;;;4.43;3.67;;;3.20;99.90;;;;;;5018869;28;20546;-51
2021/01/05 07:21:55;;;;;;;6.07;3.63;;;3.20;99.90;;;;;;5022998;28;20203;-51
2021/01/05 07:24:21;;;;;;;4.70;4.03;;;3.20;99.90;;;;;;5002887;28;20204;-51
2021/01/05 07:26:49;;;;;;;7.27;4.00;;;3.30;99.90;;;;;;5023452;28;20192;-49
2021/01/05 07:29:18;;;;;;;6.73;3.70;;;3.30;99.90;;;;;;5026203;28;20176;-51
2021/01/05 07:31:43;;;;;;;4.37;3.23;;;3.30;99.90;;;;;;5024070;28;20254;-47
2021/01/05 07:34:10;;;;;;;4.63;3.90;;;3.30;99.90;;;;;;5026999;28;20180;-50
2021/01/05 07:36:39;;;;;;;5.77;3.50;;;3.30;99.90;;;;;;5022811;28;20184;-48
2021/01/05 07:39:23;;;;;;;7.10;3.90;;;3.30;99.90;;;;;;5015060;28;20180;-47
2021/01/05 07:41:50;;;;;;;6.37;4.00;;;3.30;99.90;;;;;;5025033;28;20192;-48
2021/01/05 07:44:16;;;;;;;5.03;3.93;;;3.40;99.90;;;;;;5025882;28;20621;-51
2021/01/05 07:46:42;;;;;;;4.43;4.03;;;3.40;99.90;;;;;;5023551;28;20176;-48
2021/01/05 07:49:08;;;;;;;6.37;4.33;;;3.40;99.90;;;;;;5026515;28;20177;-49
2021/01/05 07:51:34;;;;;;;4.40;3.73;;;3.40;99.90;;;;;;5022299;28;20200;-47
2021/01/05 07:54:00;;;;;;;4.03;3.63;;;3.40;99.90;;;;;;5011127;28;20794;-47
2021/01/05 07:56:25;;;;;;;7.10;4.73;;;3.40;99.90;;;;;;5020119;28;20541;-53
2021/01/05 07:58:51;;;;;;;4.90;3.53;;;3.40;99.90;;;;;;5025180;28;20239;-48
2021/01/05 08:01:16;;;;;;;4.50;4.10;;;3.50;99.90;;;;;;5025199;28;20192;-52
2021/01/05 08:03:42;;;;;;;6.30;3.90;;;3.40;99.90;;;;;;5023022;28;20875;-48
2021/01/05 08:06:08;;;;;;;4.50;3.63;;;3.50;99.90;;;;;;5026244;28;20640;-47
2021/01/05 08:08:34;;;;;;;5.63;3.57;;;3.50;99.90;;;;;;5021599;28;20176;-47
2021/01/05 08:10:59;;;;;;;4.37;3.60;;;3.50;99.90;;;;;;5006671;28;20269;-49
2021/01/05 08:13:24;;;;;;;4.30;3.80;;;3.50;99.90;;;;;;5023338;28;20172;-53
2021/01/05 08:15:50;;;;;;;4.03;3.63;;;3.50;99.90;;;;;;5022524;28;20199;-47
2021/01/05 08:18:16;;;;;;;9.40;4.80;;;3.50;99.90;;;;;;5019820;28;20176;-53
2021/01/05 08:20:41;;;;;;;6.50;3.60;;;3.50;99.90;;;;;;5018725;28;20955;-48
2021/01/05 08:23:07;;;;;;;4.27;3.47;;;3.50;99.90;;;;;;5020824;28;20186;-48
2021/01/05 08:25:33;;;;;;;5.67;3.37;;;3.60;99.90;;;;;;5009766;28;20192;-47
2021/01/05 08:28:00;;;;;;;5.03;3.73;;;3.50;99.90;;;;;;5020651;28;20199;-47
2021/01/05 08:30:29;;;;;;;4.20;3.53;;;3.50;99.90;;;;;;5018745;28;20204;-48
2021/01/05 08:32:59;;;;;;;6.10;3.90;;;3.60;99.90;;;;;;5016616;28;20177;-49
2021/01/05 08:35:25;;;;;;;4.73;3.63;;;3.60;99.90;;;;;;5011507;28;20194;-50
2021/01/05 08:37:51;;;;;;;8.37;4.00;;;3.60;99.90;;;;;;5019483;28;20184;-47
2021/01/05 08:40:21;;;;;;;4.93;4.03;;;3.70;99.90;;;;;;5021633;28;20180;-50
2021/01/05 08:42:47;;;;;;;5.00;4.30;;;3.60;99.90;;;;;;5011266;28;20189;-47
2021/01/05 08:45:13;;;;;;;7.73;4.00;;;3.60;99.90;;;;;;5024891;28;20207;-51
2021/01/05 08:47:38;;;;;;;6.80;4.20;;;3.70;99.90;;;;;;5021001;28;20195;-48
2021/01/05 08:50:07;;;;;;;4.27;3.57;;;3.70;99.90;;;;;;5020465;28;20629;-50
2021/01/05 08:52:32;;;;;;;7.90;4.47;;;3.70;99.90;;;;;;5017170;28;20171;-48
2021/01/05 08:54:58;;;;;;;4.73;4.07;;;3.70;99.90;;;;;;5025515;28;20168;-50
2021/01/05 08:57:23;;;;;;;4.00;3.63;;;3.70;99.90;;;;;;5015577;28;20237;-51
2021/01/05 08:59:49;;;;;;;5.90;4.13;;;3.80;99.90;;;;;;5018718;28;20176;-47
2021/01/05 09:02:15;;;;;;;5.30;3.83;;;3.80;99.90;;;;;;5023684;28;20699;-52
2021/01/05 09:04:41;;;;;;;5.27;4.47;;;3.80;99.90;;;;;;5021778;28;20172;-48
2021/01/05 09:07:06;;;;;;;4.47;3.80;;;3.80;99.90;;;;;;5019652;28;20188;-48
2021/01/05 09:09:32;;;;;;;7.07;4.60;;;3.80;99.90;;;;;;5016403;28;20214;-47
2021/01/05 09:11:58;;;;;;;7.13;3.90;;;3.90;99.90;;;;;;5022610;28;20208;-47
2021/01/05 09:14:25;;;;;;;5.10;4.40;;;3.90;99.90;;;;;;5007373;28;20246;-52
2021/01/05 09:16:58;;;;;;;5.77;3.83;;;3.90;99.90;;;;;;5023642;28;20793;-49
2021/01/05 09:19:24;;;;;;;5.17;3.93;;;3.90;99.90;;;;;;5021883;28;20186;-52
2021/01/05 09:21:50;;;;;;;7.80;5.03;;;3.90;99.90;;;;;;5018598;28;20931;-48
2021/01/05 09:24:15;;;;;;;7.73;4.07;;;3.90;99.90;;;;;;5019827;28;20228;-52
2021/01/05 09:26:41;;;;;;;4.83;3.87;;;3.90;99.90;;;;;;5021231;28;20885;-48
2021/01/05 09:29:08;;;;;;;6.47;4.47;;;4.00;99.90;;;;;;5013022;28;20191;-48
2021/01/05 09:31:41;;;;;;;4.67;4.20;;;4.00;99.90;;;;;;5020254;28;20208;-47
2021/01/05 09:34:06;;;;;;;7.13;3.50;;;4.00;99.90;;;;;;5024770;28;20172;-48
2021/01/05 09:36:35;;;;;;;5.23;4.00;;;4.00;99.90;;;;;;5020286;28;20913;-47
2021/01/05 09:39:03;;;;;;;5.10;3.87;;;4.00;99.90;;;;;;5019407;28;20267;-46
2021/01/05 09:41:37;;;;;;;5.13;3.13;;;4.00;99.90;;;;;;5016774;28;20298;-54
2021/01/05 09:44:03;;;;;;;4.20;3.80;;;4.10;99.90;;;;;;5012749;28;20553;-47
2021/01/05 09:46:28;;;;;;;4.57;3.20;;;4.10;99.90;;;;;;5020639;28;20195;-50
2021/01/05 09:48:53;;;;;;;5.47;3.37;;;4.10;99.90;;;;;;5017084;28;20180;-50
2021/01/05 09:51:25;;;;;;;4.50;2.97;;;4.10;99.90;;;;;;5022444;28;20216;-47
2021/01/05 09:53:51;;;;;;;4.70;3.57;;;4.10;99.90;;;;;;5018013;28;20183;-48
2021/01/05 09:56:17;;;;;;;4.43;3.27;;;4.10;99.90;;;;;;5014800;28;20188;-47
2021/01/05 09:58:43;;;;;;;5.60;3.57;;;4.10;99.90;;;;;;5020756;28;20879;-46
2021/01/05 10:01:09;;;;;;;9.30;3.73;;;4.10;99.90;;;;;;5012381;28;20211;-47
2021/01/05 10:03:34;;;;;;;4.80;2.90;;;4.10;99.90;;;;;;5019600;28;20175;-47
2021/01/05 10:06:00;;;;;;;5.20;3.30;;;4.20;99.90;;;;;;5023854;28;20200;-48
2021/01/05 10:08:26;;;;;;;4.50;3.70;;;4.20;99.90;;;;;;5017762;28;20203;-52
2021/01/05 10:10:52;;;;;;;4.00;3.00;;;4.10;99.90;;;;;;5032417;28;21611;-47
2021/01/05 10:13:17;;;;;;;4.43;3.17;;;4.10;99.90;;;;;;5022353;28;20178;-49
2021/01/05 10:15:42;;;;;;;3.20;2.90;;;4.00;99.90;;;;;;5009332;28;20230;-47
2021/01/05 10:18:08;;;;;;;3.37;2.97;;;4.00;99.90;;;;;;5023835;28;20164;-48
2021/01/05 10:20:34;;;;;;;4.70;2.80;;;4.00;99.90;;;;;;5019533;28;20271;-49
2021/01/05 10:22:59;;;;;;;4.87;3.57;;;3.90;99.90;;;;;;5022593;28;20207;-47
2021/01/05 10:25:25;;;;;;;7.07;3.30;;;3.90;99.90;;;;;;5016071;28;20633;-50
2021/01/05 10:27:50;;;;;;;3.87;3.20;;;4.00;99.90;;;;;;5018752;28;20218;-47
2021/01/05 10:30:17;;;;;;;3.50;3.20;;;4.00;99.90;;;;;;5020168;28;20180;-51
2021/01/05 10:32:44;;;;;;;4.70;3.13;;;3.90;99.90;;;;;;5012899;28;20183;-47
2021/01/05 10:35:15;;;;;;;6.47;3.27;;;3.90;99.90;;;;;;5023505;28;20180;-48
2021/01/05 10:37:40;;;;;;;3.70;2.70;;;3.90;99.90;;;;;;5019081;28;20164;-47
2021/01/05 10:40:07;;;;;;;5.70;3.13;;;3.90;99.90;;;;;;5013458;28;20191;-47
2021/01/05 10:42:34;;;;;;;5.30;2.73;;;3.90;99.90;;;;;;5015705;28;20275;-50
2021/01/05 10:44:59;;;;;;;3.37;2.40;;;3.90;99.90;;;;;;5023406;28;20246;-47
2021/01/05 10:47:25;;;;;;;2.63;2.43;;;3.80;99.90;;;;;;5009055;28;20184;-51
2021/01/05 10:49:50;;;;;;;3.17;2.70;;;3.80;99.90;;;;;;5019762;28;20196;-48
2021/01/05 10:52:17;;;;;;;3.00;2.73;;;3.80;99.90;;;;;;5020391;28;20294;-51
2021/01/05 10:54:43;;;;;;;4.10;2.87;;;3.80;99.90;;;;;;5015673;28;21650;-49
2021/01/05 10:57:10;;;;;;;5.13;2.50;;;3.80;99.90;;;;;;5019401;28;20188;-48
2021/01/05 10:59:39;;;;;;;4.70;3.00;;;3.80;99.90;;;;;;5010416;28;20174;-51
2021/01/05 11:02:05;;;;;;;3.23;2.97;;;3.80;99.90;;;;;;5007971;28;20261;-48
2021/01/05 11:04:31;;;;;;;3.87;2.90;;;3.80;99.90;;;;;;5022974;28;20254;-51
2021/01/05 11:06:58;;;;;;;3.57;2.77;;;3.90;99.90;;;;;;5027331;28;20180;-50
2021/01/05 11:09:25;;;;;;;2.60;2.40;;;3.80;99.90;;;;;;5023359;28;20660;-51
2021/01/05 11:12:03;;;;;;;2.73;2.53;;;3.80;99.90;;;;;;5021294;28;20239;-51
2021/01/05 11:14:29;;;;;;;3.10;2.77;;;3.80;99.90;;;;;;5018519;28;20195;-53
2021/01/05 11:16:54;;;;;;;3.33;2.90;;;3.80;99.90;;;;;;5026629;28;20175;-52
2021/01/05 11:19:20;;;;;;;3.00;2.70;;;3.90;99.90;;;;;;5013349;28;20192;-51
2021/01/05 11:21:50;;;;;;;3.23;2.43;;;3.80;99.90;;;;;;5023534;28;20223;-50
2021/01/05 11:24:16;;;;;;;3.50;2.63;;;3.80;99.90;;;;;;5026062;28;20192;-52
2021/01/05 11:26:42;;;;;;;2.87;2.37;;;3.80;99.90;;;;;;5018358;28;20188;-51
2021/01/05 11:29:07;;;;;;;4.40;2.33;;;3.80;99.90;;;;;;5022989;28;20191;-50
2021/01/05 11:31:32;;;;;;;2.07;1.90;;;3.80;99.90;;;;;;5021380;28;20208;-51
2021/01/05 11:33:58;;;;;;;2.23;1.93;;;3.70;99.90;;;;;;5015243;28;20215;-52
2021/01/05 11:36:29;;;;;;;1.67;1.50;;;3.70;99.90;;;;;;5024178;28;20200;-51
2021/01/05 11:38:56;;;;;;;3.50;1.90;;;3.70;99.90;;;;;;5023786;28;20168;-49
2021/01/05 11:41:34;;;;;;;4.13;1.73;;;3.70;99.90;;;;;;5024468;28;20200;-52
2021/01/05 11:44:00;;;;;;;1.67;1.50;;;3.70;99.90;;;;;;5022122;28;20226;-47
2021/01/05 11:46:26;;;;;;;1.97;1.77;;;3.70;99.90;;;;;;5019806;28;20200;-54
2021/01/05 11:48:52;;;;;;;3.07;1.53;;;3.60;99.90;;;;;;5013934;28;20254;-48
2021/01/05 11:51:21;;;;;;;1.37;1.27;;;3.60;99.90;;;;;;5025116;28;20216;-52
2021/01/05 11:53:46;;;;;;;2.47;1.90;;;3.60;99.90;;;;;;5024224;28;20195;-50
2021/01/05 11:56:27;;;;;;;1.40;1.30;;;3.60;99.90;;;;;;5026526;28;20192;-49
2021/01/05 11:58:53;;;;;;;1.60;1.50;;;3.70;99.90;;;;;;5020771;28;20219;-51
2021/01/05 12:01:19;;;;;;;2.80;1.60;;;3.70;99.90;;;;;;5011879;28;20211;-48
2021/01/05 12:03:44;;;;;;;2.20;1.70;;;3.70;99.90;;;;;;5013134;28;20198;-51
2021/01/05 12:06:15;;;;;;;2.00;1.90;;;3.70;99.90;;;;;;5019710;28;20200;-48
2021/01/05 12:08:41;;;;;;;2.17;1.73;;;3.60;99.90;;;;;;5025181;28;20192;-53
2021/01/05 12:11:06;;;;;;;2.10;1.60;;;3.60;99.90;;;;;;5022177;28;20944;-48
2021/01/05 12:13:32;;;;;;;1.50;1.40;;;3.60;99.90;;;;;;5019636;28;20653;-48
2021/01/05 12:15:57;;;;;;;1.37;1.23;;;3.60;99.90;;;;;;5018431;28;20188;-53
2021/01/05 12:18:23;;;;;;;1.87;1.40;;;3.50;99.90;;;;;;5014716;28;20191;-49
2021/01/05 12:20:48;;;;;;;2.07;1.67;;;3.60;99.90;;;;;;5022557;28;20208;-52
2021/01/05 12:23:14;;;;;;;1.90;1.63;;;3.50;99.90;;;;;;5021113;28;20192;-47
2021/01/05 12:25:39;;;;;;;3.10;1.87;;;3.50;99.90;;;;;;5025815;28;20280;-52
2021/01/05 12:28:06;;;;;;;1.60;1.50;;;3.60;99.90;;;;;;5022037;28;20173;-47
2021/01/05 12:30:32;;;;;;;1.33;1.23;;;3.50;99.90;;;;;;5017351;28;20220;-52
2021/01/05 12:32:59;;;;;;;2.60;1.60;;;3.50;99.90;;;;;;5020659;28;20176;-53
2021/01/05 12:35:24;;;;;;;2.13;1.50;;;3.50;99.90;;;;;;5014399;28;20196;-50
2021/01/05 12:37:50;;;;;;;1.50;1.40;;;3.50;99.90;;;;;;5019450;28;20246;-53
2021/01/05 12:40:15;;;;;;;1.53;1.33;;;3.50;99.90;;;;;;5023994;28;20836;-47
2021/01/05 12:42:41;;;;;;;1.50;1.40;;;3.50;99.90;;;;;;5025110;28;20184;-51
2021/01/05 12:45:08;;;;;;;1.60;1.33;;;3.60;99.90;;;;;;5017985;28;20192;-50
2021/01/05 12:47:34;;;;;;;2.40;1.40;;;3.50;99.90;;;;;;5021889;28;20653;-47
2021/01/05 12:49:59;;;;;;;1.67;1.43;;;3.50;99.90;;;;;;5009974;28;20283;-51
2021/01/05 12:52:25;;;;;;;1.63;1.47;;;3.50;99.90;;;;;;5021843;28;20646;-51
2021/01/05 12:54:50;;;;;;;1.63;1.53;;;3.50;99.90;;;;;;5022871;28;20176;-50
2021/01/05 12:57:17;;;;;;;1.50;1.40;;;3.50;99.90;;;;;;5023945;28;20175;-50
2021/01/05 12:59:45;;;;;;;2.87;1.50;;;3.50;99.90;;;;;;5024364;28;20172;-51
2021/01/05 13:02:22;;;;;;;2.27;1.33;;;3.50;99.90;;;;;;5015165;28;20250;-52
2021/01/05 13:04:48;;;;;;;1.50;1.33;;;3.50;99.90;;;;;;5023061;28;20255;-48
2021/01/05 13:07:19;;;;;;;2.30;1.50;;;3.50;99.90;;;;;;5011052;28;20184;-54
2021/01/05 13:09:45;;;;;;;2.27;1.80;;;3.50;99.90;;;;;;5012469;28;20719;-49
2021/01/05 13:12:11;;;;;;;2.50;1.90;;;3.50;99.90;;;;;;5021621;28;20199;-47